createdAt,value
2018-07-11T00:01:15.657Z,14.20
2018-07-11T00:03:50.372Z,14.10
2018-07-11T00:06:20.826Z,14.10
2018-07-11T00:08:50.132Z,14.00
2018-07-11T00:11:19.444Z,13.90
2018-07-11T00:13:49.915Z,14.00
2018-07-11T00:16:19.160Z,13.90
2018-07-11T00:18:48.501Z,13.90
2018-07-11T00:21:17.773Z,13.90
2018-07-11T00:26:16.047Z,13.80
2018-07-11T00:28:46.217Z,13.80
2018-07-11T00:31:15.514Z,13.80
2018-07-11T00:33:44.913Z,13.80
2018-07-11T00:36:14.200Z,13.80
2018-07-11T00:38:44.236Z,13.80
2018-07-11T00:41:13.584Z,13.80
2018-07-11T00:43:42.899Z,13.80
2018-07-11T00:48:41.138Z,13.90
2018-07-11T00:51:10.753Z,13.80
2018-07-11T00:53:39.994Z,13.80
2018-07-11T00:56:09.510Z,13.80
2018-07-11T00:58:44.063Z,13.70
2018-07-11T01:01:14.620Z,13.70
2018-07-11T01:03:50.097Z,13.60
2018-07-11T01:08:51.567Z,13.70
2018-07-11T01:11:20.899Z,13.70
2018-07-11T01:13:50.203Z,13.70
2018-07-11T01:16:20.623Z,13.70
2018-07-11T01:19:11.591Z,13.70
2018-07-11T01:21:41.158Z,13.70
2018-07-11T01:24:10.498Z,13.60
2018-07-11T01:26:40.207Z,13.60
2018-07-11T01:31:38.888Z,13.60
2018-07-11T01:34:08.078Z,13.60
2018-07-11T01:36:37.291Z,13.60
2018-07-11T01:39:06.875Z,13.60
2018-07-11T01:41:36.188Z,13.60
2018-07-11T01:44:05.956Z,13.70
2018-07-11T01:46:52.020Z,13.80
2018-07-11T01:49:21.265Z,13.90
2018-07-11T01:52:01.703Z,13.90
2018-07-11T01:54:31.036Z,14.00
2018-07-11T01:57:00.292Z,14.00
2018-07-11T01:59:32.622Z,14.00
2018-07-11T02:02:02.591Z,14.00
2018-07-11T02:04:34.062Z,14.00
2018-07-11T02:07:03.643Z,14.00
2018-07-11T02:09:32.982Z,14.00
2018-07-11T02:12:02.227Z,14.00
2018-07-11T02:14:31.509Z,14.10
2018-07-11T02:19:29.590Z,14.20
2018-07-11T02:21:58.977Z,14.20
2018-07-11T02:24:28.351Z,14.20
2018-07-11T02:26:57.633Z,14.20
2018-07-11T02:29:27.097Z,14.30
2018-07-11T02:31:57.212Z,14.30
2018-07-11T02:34:31.852Z,14.30
2018-07-11T02:37:01.424Z,14.30
2018-07-11T02:39:30.992Z,14.30
2018-07-11T02:42:00.541Z,14.30
2018-07-11T02:44:30.028Z,14.20
2018-07-11T02:47:04.598Z,14.30
2018-07-11T02:49:34.007Z,14.30
2018-07-11T02:52:03.566Z,14.30
2018-07-11T02:54:32.806Z,14.20
2018-07-11T02:57:02.183Z,14.20
2018-07-11T02:59:31.435Z,14.20
2018-07-11T03:02:00.956Z,14.10
2018-07-11T03:04:30.165Z,14.00
2018-07-11T03:06:59.480Z,13.90
2018-07-11T03:09:29.509Z,13.80
2018-07-11T03:11:58.815Z,13.80
2018-07-11T03:14:28.147Z,13.80
2018-07-11T03:16:57.459Z,13.80
2018-07-11T03:19:27.110Z,13.70
2018-07-11T03:21:56.563Z,13.60
2018-07-11T03:24:25.793Z,13.60
2018-07-11T03:26:55.488Z,13.50
2018-07-11T03:29:24.806Z,13.60
2018-07-11T03:31:54.166Z,13.50
2018-07-11T03:34:23.402Z,13.50
2018-07-11T03:36:52.655Z,13.50
2018-07-11T03:39:21.928Z,13.50
2018-07-11T03:41:51.139Z,13.50
2018-07-11T03:44:20.424Z,13.60
2018-07-11T03:46:49.655Z,13.50
2018-07-11T03:49:18.912Z,13.60
2018-07-11T03:51:48.475Z,13.50
2018-07-11T03:54:17.674Z,13.50
2018-07-11T03:56:46.883Z,13.40
2018-07-11T03:59:16.521Z,13.40
2018-07-11T04:01:45.795Z,13.30
2018-07-11T04:04:15.416Z,13.30
2018-07-11T04:06:44.779Z,13.30
2018-07-11T04:09:14.115Z,13.30
2018-07-11T04:11:43.375Z,13.20
2018-07-11T04:14:12.545Z,13.20
2018-07-11T04:16:41.778Z,13.10
2018-07-11T04:19:10.979Z,13.10
2018-07-11T04:21:40.167Z,13.10
2018-07-11T04:24:09.439Z,13.10
2018-07-11T04:26:38.757Z,13.10
2018-07-11T04:29:08.016Z,13.20
2018-07-11T04:31:37.381Z,13.30
2018-07-11T04:34:07.257Z,13.30
2018-07-11T04:36:36.591Z,13.30
2018-07-11T04:39:05.889Z,13.40
2018-07-11T04:41:35.368Z,13.40
2018-07-11T04:44:04.633Z,13.50
2018-07-11T04:46:34.045Z,13.60
2018-07-11T04:49:03.293Z,13.70
2018-07-11T04:51:32.580Z,13.80
2018-07-11T04:54:01.826Z,13.70
2018-07-11T04:56:31.726Z,13.80
2018-07-11T04:59:01.014Z,13.80
2018-07-11T05:01:30.293Z,13.90
2018-07-11T05:03:59.648Z,13.90
2018-07-11T05:06:28.878Z,14.00
2018-07-11T05:08:58.110Z,14.00
2018-07-11T05:11:27.350Z,14.00
2018-07-11T05:13:56.610Z,14.10
2018-07-11T05:16:25.790Z,14.00
2018-07-11T05:18:55.199Z,14.00
2018-07-11T05:21:24.598Z,14.00
2018-07-11T05:23:53.810Z,14.00
2018-07-11T05:26:23.355Z,14.00
2018-07-11T05:28:57.560Z,14.10
2018-07-11T05:31:26.800Z,14.20
2018-07-11T05:33:56.052Z,14.30
2018-07-11T05:36:25.830Z,14.40
2018-07-11T05:38:55.076Z,14.50
2018-07-11T05:41:24.616Z,14.60
2018-07-11T05:43:53.858Z,14.60
2018-07-11T05:46:23.133Z,14.50
2018-07-11T05:48:52.356Z,14.50
2018-07-11T05:51:21.613Z,14.50
2018-07-11T05:53:50.978Z,14.30
2018-07-11T05:56:20.306Z,14.40
2018-07-11T05:58:50.044Z,14.40
2018-07-11T06:01:19.275Z,14.40
2018-07-11T06:03:48.493Z,14.50
2018-07-11T06:06:18.855Z,14.40
2018-07-11T06:08:48.100Z,14.40
2018-07-11T06:11:20.242Z,14.50
2018-07-11T06:13:49.850Z,14.40
2018-07-11T06:16:19.157Z,14.50
2018-07-11T06:18:48.903Z,14.60
2018-07-11T06:21:18.480Z,14.60
2018-07-11T06:23:48.483Z,14.60
2018-07-11T06:28:46.564Z,14.70
2018-07-11T06:31:15.822Z,14.80
2018-07-11T06:33:45.063Z,14.90
2018-07-11T06:36:14.284Z,15.10
2018-07-11T06:38:43.525Z,15.20
2018-07-11T06:41:12.879Z,15.40
2018-07-11T06:43:42.279Z,15.50
2018-07-11T06:46:11.552Z,15.50
2018-07-11T06:48:40.804Z,15.70
2018-07-11T06:51:10.066Z,15.70
2018-07-11T06:53:39.401Z,15.80
2018-07-11T06:56:08.731Z,16.00
2018-07-11T06:58:37.825Z,15.90
2018-07-11T07:01:07.335Z,15.90
2018-07-11T07:03:36.563Z,15.90
2018-07-11T07:06:05.929Z,16.10
2018-07-11T07:08:36.055Z,16.40
2018-07-11T07:11:05.299Z,16.90
2018-07-11T07:13:34.591Z,17.10
2018-07-11T07:16:03.870Z,17.60
2018-07-11T07:18:33.383Z,17.90
2018-07-11T07:21:02.577Z,18.10
2018-07-11T07:26:00.920Z,18.70
2018-07-11T07:28:30.157Z,18.70
2018-07-11T07:30:59.600Z,18.90
2018-07-11T07:33:28.839Z,19.20
2018-07-11T07:35:58.147Z,19.50
2018-07-11T07:38:27.439Z,19.80
2018-07-11T07:40:56.733Z,20.00
2018-07-11T07:43:26.839Z,20.40
2018-07-11T07:45:56.145Z,20.30
2018-07-11T07:48:25.347Z,19.90
2018-07-11T07:50:54.715Z,19.40
2018-07-11T07:53:24.043Z,19.20
2018-07-11T07:55:53.408Z,19.30
2018-07-11T07:58:22.760Z,19.30
2018-07-11T08:00:52.555Z,19.40
2018-07-11T08:03:22.150Z,19.80
2018-07-11T08:05:51.418Z,20.20
2018-07-11T08:08:20.672Z,20.40
2018-07-11T08:10:49.975Z,20.50
2018-07-11T08:13:19.187Z,20.50
2018-07-11T08:15:48.852Z,20.60
2018-07-11T08:18:19.328Z,20.60
2018-07-11T08:20:48.559Z,21.00
2018-07-11T08:23:39.425Z,21.30
2018-07-11T08:26:20.304Z,21.50
2018-07-11T08:31:05.423Z,21.60
2018-07-11T08:35:49.426Z,21.70
2018-07-11T08:40:37.356Z,22.10
2018-07-11T08:43:36.427Z,22.10
2018-07-11T08:46:30.765Z,21.20
2018-07-11T08:55:57.917Z,20.80
2018-07-11T08:58:53.583Z,20.70
2018-07-11T09:11:34.454Z,20.60
2018-07-11T09:16:20.773Z,20.80
2018-07-11T09:21:07.508Z,21.20
2018-07-11T09:24:49.612Z,21.40
2018-07-11T09:27:19.268Z,21.80
2018-07-11T09:29:48.950Z,22.00
2018-07-11T09:32:18.309Z,22.00
2018-07-11T09:34:48.444Z,22.10
2018-07-11T09:37:17.798Z,22.20
2018-07-11T09:39:47.286Z,22.30
2018-07-11T09:42:16.577Z,22.20
2018-07-11T09:44:47.547Z,22.10
2018-07-11T09:47:22.529Z,22.00
2018-07-11T09:49:51.788Z,22.10
2018-07-11T09:52:21.440Z,22.20
2018-07-11T09:54:50.878Z,22.30
2018-07-11T09:57:20.231Z,22.30
2018-07-11T09:59:49.787Z,22.30
2018-07-11T10:02:19.237Z,22.50
2018-07-11T10:04:48.852Z,22.50
2018-07-11T10:07:18.127Z,22.50
2018-07-11T10:09:48.103Z,22.70
2018-07-11T10:12:17.388Z,22.80
2018-07-11T10:14:47.283Z,22.90
2018-07-11T10:17:16.655Z,23.10
2018-07-11T10:19:46.189Z,23.20
2018-07-11T10:22:15.609Z,23.00
2018-07-11T10:24:44.864Z,23.10
2018-07-11T10:27:14.319Z,23.40
2018-07-11T10:29:43.595Z,23.60
2018-07-11T10:32:12.898Z,23.90
2018-07-11T10:34:42.168Z,24.20
2018-07-11T10:37:11.524Z,24.00
2018-07-11T10:39:40.970Z,24.00
2018-07-11T10:42:10.217Z,23.80
2018-07-11T10:44:39.613Z,24.00
2018-07-11T10:47:12.712Z,24.00
2018-07-11T10:49:43.082Z,23.90
2018-07-11T10:52:12.338Z,24.10
2018-07-11T10:54:41.641Z,24.00
2018-07-11T10:59:39.819Z,23.90
2018-07-11T11:04:38.013Z,23.80
2018-07-11T11:07:08.074Z,23.40
2018-07-11T11:09:37.533Z,23.20
2018-07-11T11:12:06.897Z,23.10
2018-07-11T11:14:36.307Z,23.10
2018-07-11T11:17:05.557Z,23.10
2018-07-11T11:19:34.820Z,23.30
2018-07-11T11:22:04.183Z,23.40
2018-07-11T11:24:33.507Z,23.60
2018-07-11T11:27:02.806Z,23.60
2018-07-11T11:29:32.380Z,23.80
2018-07-11T11:32:02.007Z,23.90
2018-07-11T11:34:31.298Z,23.90
2018-07-11T11:37:01.095Z,24.00
2018-07-11T11:39:30.436Z,24.10
2018-07-11T11:41:59.826Z,23.90
2018-07-11T11:44:29.169Z,23.60
2018-07-11T11:47:01.894Z,23.70
2018-07-11T11:49:31.935Z,23.70
2018-07-11T11:52:01.636Z,23.80
2018-07-11T11:54:31.020Z,23.80
2018-07-11T11:57:00.482Z,23.40
2018-07-11T12:01:59.237Z,23.00
2018-07-11T12:04:28.944Z,22.70
2018-07-11T12:09:27.594Z,22.40
2018-07-11T12:12:01.139Z,22.40
2018-07-11T12:14:30.901Z,22.50
2018-07-11T12:17:00.337Z,22.60
2018-07-11T12:19:29.860Z,22.70
2018-07-11T12:22:01.365Z,22.90
2018-07-11T12:24:30.875Z,23.10
2018-07-11T12:27:00.399Z,22.60
2018-07-11T12:29:29.807Z,22.80
2018-07-11T12:31:59.466Z,22.80
2018-07-11T12:34:28.814Z,22.70
2018-07-11T12:36:58.657Z,22.90
2018-07-11T12:39:28.236Z,23.10
2018-07-11T12:41:57.860Z,23.10
2018-07-11T12:44:27.226Z,23.20
2018-07-11T12:46:56.676Z,23.30
2018-07-11T12:49:26.433Z,23.70
2018-07-11T12:51:56.073Z,23.70
2018-07-11T12:54:25.991Z,23.80
2018-07-11T12:56:55.406Z,23.80
2018-07-11T12:59:26.776Z,23.80
2018-07-11T13:01:56.379Z,23.70
2018-07-11T13:04:30.016Z,23.60
2018-07-11T13:07:00.215Z,23.80
2018-07-11T13:09:29.815Z,23.90
2018-07-11T13:11:59.671Z,24.10
2018-07-11T13:14:29.180Z,24.20
2018-07-11T13:16:58.462Z,23.90
2018-07-11T13:19:27.816Z,23.90
2018-07-11T13:21:57.333Z,24.30
2018-07-11T13:24:26.703Z,24.60
2018-07-11T13:26:56.344Z,24.90
2018-07-11T13:29:25.716Z,24.60
2018-07-11T13:31:55.197Z,24.30
2018-07-11T13:34:24.864Z,24.10
2018-07-11T13:36:54.160Z,24.00
2018-07-11T13:41:56.324Z,23.50
2018-07-11T13:44:25.995Z,23.60
2018-07-11T13:46:56.201Z,23.70
2018-07-11T13:49:26.205Z,23.80
2018-07-11T13:51:55.505Z,23.80
2018-07-11T13:54:28.922Z,23.60
2018-07-11T13:56:58.256Z,23.50
2018-07-11T13:59:27.609Z,23.50
2018-07-11T14:01:56.945Z,23.30
2018-07-11T14:04:26.279Z,23.10
2018-07-11T14:06:55.759Z,22.90
2018-07-11T14:09:25.102Z,22.80
2018-07-11T14:11:54.355Z,22.70
2018-07-11T14:14:23.715Z,22.50
2018-07-11T14:16:53.159Z,22.50
2018-07-11T14:19:22.753Z,22.50
2018-07-11T14:31:37.603Z,22.50
2018-07-11T14:34:08.589Z,22.40
2018-07-11T14:36:37.959Z,22.40
2018-07-11T14:39:07.983Z,22.20
2018-07-11T14:41:37.273Z,22.10
2018-07-11T14:44:08.222Z,22.10
2018-07-11T14:46:37.579Z,22.00
2018-07-11T14:49:07.276Z,22.00
2018-07-11T14:51:37.095Z,22.10
2018-07-11T14:54:06.901Z,22.20
2018-07-11T14:56:36.443Z,22.20
2018-07-11T14:59:06.488Z,22.20
2018-07-11T15:01:36.009Z,22.20
2018-07-11T15:04:05.329Z,22.20
2018-07-11T15:06:35.565Z,22.20
2018-07-11T15:09:05.722Z,22.10
2018-07-11T15:11:35.022Z,22.10
2018-07-11T15:14:04.437Z,22.00
2018-07-11T15:16:33.845Z,21.90
2018-07-11T15:19:03.516Z,21.80
2018-07-11T15:21:32.912Z,21.70
2018-07-11T15:24:02.995Z,21.60
2018-07-11T15:26:32.653Z,21.60
2018-07-11T15:29:02.059Z,21.60
2018-07-11T15:31:31.411Z,21.50
2018-07-11T15:34:00.869Z,21.60
2018-07-11T15:36:30.438Z,21.50
2018-07-11T15:38:59.911Z,21.50
2018-07-11T15:41:29.459Z,21.40
2018-07-11T15:43:58.959Z,21.40
2018-07-11T15:46:29.427Z,21.40
2018-07-11T15:48:59.427Z,21.40
2018-07-11T15:51:28.922Z,21.30
2018-07-11T15:53:58.387Z,21.30
2018-07-11T15:56:27.864Z,21.40
2018-07-11T15:59:07.591Z,21.30
2018-07-11T16:01:46.172Z,21.00
2018-07-11T16:04:22.197Z,20.30
2018-07-11T16:06:51.798Z,19.80
2018-07-11T16:09:21.285Z,19.50
2018-07-11T16:11:50.707Z,19.40
2018-07-11T16:14:20.345Z,19.20
2018-07-11T16:16:50.077Z,19.20
2018-07-11T16:19:19.520Z,19.20
2018-07-11T16:21:49.205Z,19.20
2018-07-11T16:24:19.302Z,19.10
2018-07-11T16:26:48.880Z,19.10
2018-07-11T16:29:18.437Z,18.90
2018-07-11T16:31:47.827Z,18.90
2018-07-11T16:34:17.195Z,18.90
2018-07-11T16:36:46.488Z,18.90
2018-07-11T16:39:17.033Z,18.80
2018-07-11T16:41:46.516Z,18.80
2018-07-11T16:44:16.975Z,18.70
2018-07-11T16:46:47.451Z,18.60
2018-07-11T16:49:17.815Z,18.60
2018-07-11T16:51:48.832Z,18.60
2018-07-11T16:54:19.081Z,18.60
2018-07-11T16:59:18.507Z,18.90
2018-07-11T17:01:52.770Z,18.90
2018-07-11T17:04:23.366Z,19.00
2018-07-11T17:06:54.578Z,19.10
2018-07-11T17:09:25.096Z,19.10
2018-07-11T17:11:55.540Z,19.20
2018-07-11T17:17:02.396Z,19.10
2018-07-11T17:19:38.242Z,19.10
2018-07-11T17:22:08.478Z,19.10
2018-07-11T17:24:41.168Z,19.00
2018-07-11T17:27:10.555Z,19.10
2018-07-11T17:29:41.396Z,19.00
2018-07-11T17:32:11.775Z,19.10
2018-07-11T17:34:41.278Z,19.10
2018-07-11T17:37:11.395Z,19.20
2018-07-11T17:39:54.651Z,19.20
2018-07-11T17:42:27.315Z,19.20
2018-07-11T17:45:15.333Z,19.30
2018-07-11T17:48:04.918Z,19.20
2018-07-11T17:50:34.852Z,19.20
2018-07-11T17:53:11.661Z,19.10
2018-07-11T17:56:15.083Z,18.90
2018-07-11T17:58:56.971Z,18.90
2018-07-11T18:01:34.754Z,18.90
2018-07-11T18:04:09.005Z,18.80
2018-07-11T18:06:51.058Z,18.90
2018-07-11T18:09:23.653Z,18.90
2018-07-11T18:15:37.603Z,18.90
2018-07-11T18:18:18.644Z,18.90
2018-07-11T18:21:28.958Z,18.80
2018-07-11T18:24:06.388Z,18.70
2018-07-11T18:26:43.541Z,18.70
2018-07-11T18:29:21.700Z,18.60
2018-07-11T18:32:02.318Z,18.50
2018-07-11T18:34:43.470Z,18.40
2018-07-11T18:38:00.698Z,18.20
2018-07-11T18:40:37.160Z,17.90
2018-07-11T18:57:39.617Z,17.60
2018-07-11T19:00:18.004Z,17.30
2018-07-11T19:04:01.474Z,17.30
2018-07-11T19:08:44.837Z,17.30
2018-07-11T19:11:23.784Z,17.30
2018-07-11T19:13:56.924Z,17.20
2018-07-11T19:18:44.024Z,17.20
2018-07-11T19:21:18.602Z,17.10
2018-07-11T19:24:05.977Z,17.20
2018-07-11T19:27:00.450Z,17.20
2018-07-11T19:30:17.949Z,17.20
2018-07-11T19:35:17.545Z,17.20
2018-07-11T19:40:01.142Z,17.20
2018-07-11T19:42:54.694Z,17.20
2018-07-11T19:45:32.847Z,17.20
2018-07-11T19:50:23.620Z,17.20
2018-07-11T19:55:04.865Z,17.20
2018-07-11T19:57:34.339Z,17.20
2018-07-11T20:00:03.877Z,17.20
2018-07-11T20:02:34.229Z,17.20
2018-07-11T20:05:04.319Z,17.20
2018-07-11T20:07:35.217Z,17.20
2018-07-11T20:10:04.703Z,17.20
2018-07-11T20:12:34.797Z,17.20
2018-07-11T20:15:04.945Z,17.20
2018-07-11T20:17:35.111Z,17.30
2018-07-11T20:20:04.515Z,17.20
2018-07-11T20:22:34.197Z,17.20
2018-07-11T20:27:33.171Z,17.20
2018-07-11T20:30:02.815Z,17.20
2018-07-11T20:32:32.151Z,17.20
2018-07-11T20:35:02.370Z,17.20
2018-07-11T20:37:32.461Z,17.20
2018-07-11T20:40:02.689Z,17.20
2018-07-11T20:42:32.088Z,17.20
2018-07-11T20:45:01.657Z,17.10
2018-07-11T20:47:31.045Z,17.10
2018-07-11T20:50:00.709Z,17.10
2018-07-11T20:52:30.207Z,17.10
2018-07-11T20:54:59.581Z,17.20
2018-07-11T20:57:28.884Z,17.20
2018-07-11T21:00:09.415Z,17.10
2018-07-11T21:03:04.830Z,17.10
2018-07-11T21:05:46.052Z,17.10
2018-07-11T21:08:29.915Z,17.10
2018-07-11T21:13:15.824Z,17.10
2018-07-11T21:15:58.151Z,17.10
2018-07-11T21:18:36.395Z,17.20
2018-07-11T21:21:05.693Z,17.20
2018-07-11T21:23:35.619Z,17.20
2018-07-11T21:26:04.957Z,17.20
2018-07-11T21:28:34.275Z,17.20
2018-07-11T21:31:03.620Z,17.20
2018-07-11T21:33:33.230Z,17.20
2018-07-11T21:36:02.631Z,17.20
2018-07-11T21:38:32.842Z,17.20
2018-07-11T21:41:02.109Z,17.20
2018-07-11T21:43:31.404Z,17.10
2018-07-11T21:48:29.526Z,17.10
2018-07-11T21:50:59.000Z,17.10
2018-07-11T21:53:29.140Z,17.10
2018-07-11T21:55:58.590Z,17.10
2018-07-11T21:58:28.544Z,17.10
2018-07-11T22:03:30.984Z,17.10
2018-07-11T22:06:00.299Z,17.10
2018-07-11T22:08:29.618Z,17.10
2018-07-11T22:10:59.116Z,17.10
2018-07-11T22:13:28.454Z,17.00
2018-07-11T22:15:57.763Z,16.90
2018-07-11T22:18:33.412Z,16.90
2018-07-11T22:21:02.476Z,16.80
2018-07-11T22:23:30.377Z,16.80
2018-07-11T22:25:58.596Z,16.70
2018-07-11T22:28:26.510Z,16.70
2018-07-11T22:30:54.364Z,16.70
2018-07-11T22:33:22.348Z,16.70
2018-07-11T22:35:50.187Z,16.70
2018-07-11T22:38:18.101Z,16.80
2018-07-11T22:40:46.162Z,16.80
2018-07-11T22:43:13.959Z,16.80
2018-07-11T22:45:41.911Z,16.80
2018-07-11T22:48:09.885Z,16.80
2018-07-11T22:50:37.808Z,16.80
2018-07-11T22:53:05.634Z,16.80
2018-07-11T22:55:33.652Z,16.80
2018-07-11T23:00:29.610Z,16.80
2018-07-11T23:02:57.409Z,16.80
2018-07-11T23:05:25.282Z,16.90
2018-07-11T23:07:53.176Z,16.80
2018-07-11T23:10:21.256Z,16.80
2018-07-11T23:12:49.136Z,16.80
2018-07-11T23:15:17.025Z,16.80
2018-07-11T23:17:44.972Z,16.80
2018-07-11T23:20:12.890Z,16.80
2018-07-11T23:22:40.706Z,16.70
2018-07-11T23:27:36.636Z,16.80
2018-07-11T23:30:04.467Z,16.80
2018-07-11T23:32:32.450Z,16.80
2018-07-11T23:35:00.387Z,16.80
2018-07-11T23:37:28.211Z,16.80
2018-07-11T23:39:56.071Z,16.80
2018-07-11T23:42:23.927Z,16.80
2018-07-11T23:44:51.818Z,16.90
2018-07-11T23:47:19.623Z,16.80
2018-07-11T23:49:47.631Z,16.80
2018-07-11T23:52:15.474Z,16.80
2018-07-11T23:54:43.333Z,16.80
2018-07-11T23:57:11.251Z,16.80
2018-07-11T23:59:39.087Z,16.80
